Time;durP1;ratioP1;P1;durP2;ratioP2;P2;SDS_P1;SDS_P2;PMS_P1;PMS_P2;Temp;Humidity;BMP_temperature;BMP_pressure;BME280_temperature;BME280_humidity;BME280_pressure;Samples;Min_cycle;Max_cycle;Signal;HPM_P1;HPM_P2
2021/12/11 00:00:16;;;;;;;;;10.25;8.00;;;;;7.85;59.44;100955.00;5068432;28;47025;-89
2021/12/11 00:02:43;;;;;;;;;15.50;12.75;;;;;7.88;59.60;100960.19;5049674;28;46344;-89
2021/12/11 00:05:15;;;;;;;;;22.25;15.50;;;;;7.91;59.43;100964.50;5056964;28;45251;-89
2021/12/11 00:07:42;;;;;;;;;20.25;16.00;;;;;7.90;59.00;100959.31;5041725;28;45449;-89
2021/12/11 00:10:21;;;;;;;;;18.00;12.75;;;;;7.91;59.07;100959.28;5056438;28;46895;-89
2021/12/11 00:12:52;;;;;;;;;18.00;11.75;;;;;7.91;59.55;100968.88;5057737;28;47140;-87
2021/12/11 00:15:23;;;;;;;;;3.00;3.00;;;;;7.94;59.40;100971.44;5050589;28;45858;-89
2021/12/11 00:17:56;;;;;;;;;8.50;4.00;;;;;7.92;58.99;100978.47;5057984;28;45445;-91
2021/12/11 00:20:26;;;;;;;;;7.00;6.00;;;;;7.90;59.34;100982.88;5059191;28;45242;-90
2021/12/11 00:22:52;;;;;;;;;4.25;4.00;;;;;7.92;59.33;100986.31;5060149;28;46639;-89
2021/12/11 00:25:18;;;;;;;;;4.00;4.00;;;;;7.91;59.34;100989.81;5048131;28;45421;-90
2021/12/11 00:27:47;;;;;;;;;9.75;6.75;;;;;7.88;59.08;100996.84;5060060;28;45213;-89
2021/12/11 00:30:41;;;;;;;;;31.50;26.75;;;;;7.87;59.38;100997.75;5052711;28;45247;-89
2021/12/11 00:33:21;;;;;;;;;6.50;6.50;;;;;7.92;59.39;101004.66;5056387;28;45264;-90
2021/12/11 00:35:48;;;;;;;;;5.50;4.00;;;;;7.89;59.10;101002.94;5051575;28;45764;-90
2021/12/11 00:38:17;;;;;;;;;6.00;4.50;;;;;7.86;59.09;101008.22;5053533;28;45185;-90
2021/12/11 00:40:45;;;;;;;;;4.75;3.75;;;;;7.84;59.22;101010.00;5056347;28;45508;-88
2021/12/11 00:43:17;;;;;;;;;6.50;5.75;;;;;7.83;59.48;101018.72;5056737;28;46277;-89
2021/12/11 00:45:46;;;;;;;;;5.00;3.50;;;;;7.80;59.12;101014.44;5057911;28;45900;-84
2021/12/11 00:48:16;;;;;;;;;5.00;3.00;;;;;7.78;59.39;101025.81;5062013;28;45312;-87
2021/12/11 00:50:51;;;;;;;;;7.00;4.00;;;;;7.79;59.14;101022.31;5061806;28;45464;-87
2021/12/11 00:53:24;;;;;;;;;3.00;3.00;;;;;7.79;59.24;101032.78;5045595;28;46333;-87
2021/12/11 00:55:57;;;;;;;;;3.50;2.25;;;;;7.73;58.90;101033.75;5058049;28;45247;-86
2021/12/11 00:58:27;;;;;;;;;6.75;4.00;;;;;7.71;59.20;101044.22;5060474;28;45352;-86
2021/12/11 01:01:17;;;;;;;;;5.50;3.25;;;;;7.65;59.69;101053.03;5061870;28;45640;-84
2021/12/11 01:04:00;;;;;;;;;2.50;2.50;;;;;7.66;59.60;101040.81;5061681;28;45566;-84
2021/12/11 01:06:31;;;;;;;;;4.00;4.00;;;;;7.69;59.73;101060.84;5048341;28;46973;-85
2021/12/11 01:09:10;;;;;;;;;5.00;4.75;;;;;7.64;59.53;101063.53;5077666;28;45521;-86
2021/12/11 01:11:52;;;;;;;;;2.00;2.00;;;;;7.65;60.19;101071.34;5077656;28;46115;-91
2021/12/11 01:14:33;;;;;;;;;6.00;3.00;;;;;7.64;59.93;101071.38;5059846;28;45691;-87
2021/12/11 01:17:06;;;;;;;;;5.00;3.50;;;;;7.63;59.61;101080.97;5061949;28;45436;-82
2021/12/11 01:19:37;;;;;;;;;5.25;3.50;;;;;7.63;59.93;101078.34;5052344;28;45473;-81
2021/12/11 01:22:21;;;;;;;;;3.00;3.00;;;;;7.58;60.00;101081.94;5059292;28;45504;-88
2021/12/11 01:24:51;;;;;;;;;3.25;3.00;;;;;7.62;59.62;101087.09;5050065;28;46587;-92
2021/12/11 01:27:22;;;;;;;;;4.75;3.50;;;;;7.63;59.75;101099.28;5061801;28;45303;-91
2021/12/11 01:29:50;;;;;;;;;3.00;3.00;;;;;7.59;59.95;101100.22;5060387;28;45258;-90
2021/12/11 01:32:16;;;;;;;;;3.00;2.00;;;;;7.58;60.07;101108.09;5073787;28;46189;-91
2021/12/11 01:34:43;;;;;;;;;2.50;2.50;;;;;7.61;59.73;101106.28;5056795;28;48440;-90
2021/12/11 01:37:09;;;;;;;;;4.50;2.50;;;;;7.56;59.67;101105.50;5050735;28;45668;-90
2021/12/11 01:39:39;;;;;;;;;3.00;2.75;;;;;7.57;60.01;101111.59;5061288;28;45219;-90
2021/12/11 01:42:15;;;;;;;;;4.50;3.00;;;;;7.59;59.74;101123.78;5056594;28;45481;-90
2021/12/11 01:44:44;;;;;;;;;3.75;2.75;;;;;7.52;59.54;101115.16;5054070;28;45520;-89
2021/12/11 01:47:13;;;;;;;;;4.50;2.75;;;;;7.52;59.83;101133.47;5061275;28;45255;-88
2021/12/11 01:49:43;;;;;;;;;4.25;4.25;;;;;7.49;60.23;101130.00;5060572;28;45445;-90
2021/12/11 01:52:29;;;;;;;;;3.50;2.00;;;;;7.49;59.91;101146.56;5069762;28;45401;-91
2021/12/11 01:54:55;;;;;;;;;2.75;2.25;;;;;7.45;60.51;101138.78;5052434;28;48022;-93
2021/12/11 01:57:26;;;;;;;;;4.00;4.00;;;;;7.40;60.18;101139.72;5070427;28;46997;-94
2021/12/11 02:00:00;;;;;;;;;3.00;2.75;;;;;7.40;59.98;101137.13;5053023;28;45367;-94
2021/12/11 02:02:34;;;;;;;;;4.75;1.75;;;;;7.42;60.26;101140.56;5061624;28;45398;-94
2021/12/11 02:05:00;;;;;;;;;2.00;2.00;;;;;7.39;60.60;101153.69;5052870;28;47593;-90
2021/12/11 02:07:30;;;;;;;;;2.00;2.00;;;;;7.35;60.12;101149.38;5060382;28;45425;-90
2021/12/11 02:09:59;;;;;;;;;3.00;3.00;;;;;7.41;60.71;101154.53;5061259;28;45188;-90
2021/12/11 02:12:40;;;;;;;;;3.50;2.00;;;;;7.46;60.09;101171.94;5044478;28;45425;-90
2021/12/11 02:15:10;;;;;;;;;3.50;3.00;;;;;7.45;60.43;101173.66;5040626;28;46607;-91
2021/12/11 02:17:44;;;;;;;;;2.25;2.00;;;;;7.39;60.28;101176.34;5058458;28;45421;-92
2021/12/11 02:20:19;;;;;;;;;2.50;2.50;;;;;7.37;60.56;101176.38;5053213;28;45350;-92
2021/12/11 02:22:48;;;;;;;;;3.00;2.00;;;;;7.36;60.29;101171.19;5059791;28;46966;-92
2021/12/11 02:25:21;;;;;;;;;6.25;3.00;;;;;7.37;60.21;101179.00;5072030;28;48376;-92
2021/12/11 02:27:58;;;;;;;;;2.75;2.50;;;;;7.37;60.75;101192.06;5059246;28;45920;-85
2021/12/11 02:30:32;;;;;;;;;6.00;3.75;;;;;7.33;60.20;101193.00;5052225;27;45331;-85
2021/12/11 02:33:17;;;;;;;;;4.25;4.00;;;;;7.37;60.54;101193.81;5054221;28;46445;-88
2021/12/11 02:36:07;;;;;;;;;4.00;4.00;;;;;7.39;60.81;101198.13;5045944;28;45686;-87
2021/12/11 02:38:49;;;;;;;;;4.50;2.25;;;;;7.39;60.66;101203.38;5060321;28;45682;-89
2021/12/11 02:41:49;;;;;;;;;5.50;3.00;;;;;7.36;60.73;101198.16;5058010;28;45586;-89
2021/12/11 02:44:28;;;;;;;;;3.25;3.00;;;;;7.36;60.71;101203.41;5059293;28;45587;-85
2021/12/11 02:47:00;;;;;;;;;2.00;2.00;;;;;7.37;60.59;101204.28;5059621;28;45663;-87
2021/12/11 02:49:32;;;;;;;;;4.75;4.00;;;;;7.35;60.97;101211.28;5046009;28;45702;-88
2021/12/11 02:52:31;;;;;;;;;6.00;2.00;;;;;7.35;60.77;101221.72;5061926;28;45320;-88
2021/12/11 02:55:00;;;;;;;;;3.00;2.75;;;;;7.31;60.77;101213.03;5057854;28;45350;-88
2021/12/11 02:57:33;;;;;;;;;4.50;4.50;;;;;7.30;60.55;101219.19;5046020;28;46263;-87
2021/12/11 03:00:14;;;;;;;;;8.00;3.00;;;;;7.28;60.58;101216.59;5039778;28;45826;-82
2021/12/11 03:02:46;;;;;;;;;4.00;2.00;;;;;7.25;60.94;101221.84;5058514;28;45460;-90
2021/12/11 03:05:15;;;;;;;;;8.50;4.50;;;;;7.25;60.62;101231.44;5047379;28;45495;-92
2021/12/11 03:07:49;;;;;;;;;4.00;2.00;;;;;7.20;60.98;101232.34;5042764;28;47064;-92
2021/12/11 03:10:22;;;;;;;;;2.00;2.00;;;;;7.20;60.86;101240.19;5051576;28;46113;-94
2021/12/11 03:12:48;;;;;;;;;4.25;3.00;;;;;7.16;60.96;101232.41;5056409;28;45394;-94
2021/12/11 03:15:15;;;;;;;;;4.00;4.00;;;;;7.18;61.27;101246.31;5058863;28;45935;-88
2021/12/11 03:17:41;;;;;;;;;11.75;4.75;;;;;7.17;61.09;101249.81;5059316;28;46311;-86
2021/12/11 03:20:10;;;;;;;;;8.75;6.75;;;;;7.18;60.75;101252.44;5059892;28;45469;-86
2021/12/11 03:22:36;;;;;;;;;5.00;3.75;;;;;7.13;60.70;101254.22;5059789;28;45177;-86
2021/12/11 03:25:06;;;;;;;;;5.50;5.00;;;;;7.15;60.89;101262.91;5045225;28;45462;-86
2021/12/11 03:27:32;;;;;;;;;8.75;4.00;;;;;7.12;61.36;101262.06;5046287;28;46506;-90
2021/12/11 03:29:57;;;;;;;;;7.00;5.00;;;;;7.09;61.10;101269.06;5059475;28;45558;-88
2021/12/11 03:32:23;;;;;;;;;4.00;3.00;;;;;7.08;61.25;101284.78;5059609;28;45321;-87
2021/12/11 03:34:50;;;;;;;;;4.00;3.00;;;;;7.04;61.16;101283.91;5050976;28;45603;-87
2021/12/11 03:37:18;;;;;;;;;2.00;2.00;;;;;7.02;61.59;101287.41;5052856;28;45462;-87
2021/12/11 03:39:47;;;;;;;;;2.25;2.25;;;;;6.96;61.26;101283.13;5046703;28;45474;-87
2021/12/11 03:42:18;;;;;;;;;4.50;3.00;;;;;6.96;61.75;101283.97;5057455;28;45468;-86
2021/12/11 03:44:44;;;;;;;;;3.00;1.50;;;;;6.97;61.88;101287.47;5059364;28;45504;-90
2021/12/11 03:47:15;;;;;;;;;2.25;2.25;;;;;6.96;61.75;101293.59;5056794;28;47191;-92
2021/12/11 03:49:41;;;;;;;;;3.50;1.50;;;;;6.98;62.06;101295.31;5069724;28;46153;-90
2021/12/11 03:52:08;;;;;;;;;4.50;2.00;;;;;6.93;61.81;101297.09;5044958;28;45633;-90
2021/12/11 03:54:36;;;;;;;;;4.50;2.00;;;;;7.00;61.87;101313.59;5047571;28;46304;-89
2021/12/11 03:57:06;;;;;;;;;5.75;3.75;;;;;6.96;61.53;101309.28;5047181;28;45597;-89
2021/12/11 03:59:32;;;;;;;;;4.75;1.50;;;;;7.03;62.14;101317.91;5058751;28;45266;-89
2021/12/11 04:02:04;;;;;;;;;5.00;2.50;;;;;7.02;61.58;101317.03;5063072;28;45476;-91
2021/12/11 04:04:36;;;;;;;;;3.75;1.75;;;;;7.04;61.90;101319.63;5048329;28;45422;-91
2021/12/11 04:07:04;;;;;;;;;5.00;2.00;;;;;7.04;62.23;101311.78;5049287;28;47253;-84
2021/12/11 04:09:31;;;;;;;;;3.75;2.25;;;;;7.03;62.15;101305.72;5062798;28;45218;-84
2021/12/11 04:11:57;;;;;;;;;2.50;1.25;;;;;7.07;61.93;101311.78;5062580;28;45310;-84
2021/12/11 04:14:27;;;;;;;;;2.75;1.50;;;;;7.06;62.15;101321.34;5062559;28;45210;-83
2021/12/11 04:16:54;;;;;;;;;3.00;2.25;;;;;7.10;62.20;101322.22;5057203;28;45308;-92
2021/12/11 04:19:20;;;;;;;;;2.00;2.00;;;;;7.12;62.25;101323.06;5050296;28;45479;-90
2021/12/11 04:21:46;;;;;;;;;4.25;1.00;;;;;7.12;62.25;101320.44;5059523;28;45227;-87
2021/12/11 04:24:15;;;;;;;;;3.00;1.00;;;;;7.13;61.97;101324.81;5062865;28;47320;-87
2021/12/11 04:26:41;;;;;;;;;2.25;2.25;;;;;7.17;62.02;101334.34;5060275;28;45424;-85
2021/12/11 04:29:06;;;;;;;;;3.25;1.00;;;;;7.21;62.22;101337.78;5051069;28;45267;-86
2021/12/11 04:31:34;;;;;;;;;3.25;2.00;;;;;7.22;62.15;101341.28;5059158;28;45432;-86
2021/12/11 04:34:03;;;;;;;;;3.00;1.75;;;;;7.23;61.80;101332.56;5051371;28;45177;-94
2021/12/11 04:36:33;;;;;;;;;1.25;0.75;;;;;7.23;62.13;101336.06;5058954;28;47090;-93
2021/12/11 04:39:00;;;;;;;;;5.25;2.25;;;;;7.29;62.07;101353.41;5058121;28;45342;-91
2021/12/11 04:41:36;;;;;;;;;3.00;1.75;;;;;7.29;61.84;101351.66;5053370;28;45271;-90
2021/12/11 04:44:06;;;;;;;;;7.50;2.00;;;;;7.29;61.66;101359.50;5053595;28;45203;-94
2021/12/11 04:46:32;;;;;;;;;3.00;1.50;;;;;7.25;61.55;101356.94;5059426;28;47137;-96
2021/12/11 04:49:28;;;;;;;;;4.75;3.00;;;;;7.25;61.88;101362.16;5072171;28;45333;-86
2021/12/11 04:52:02;;;;;;;;;1.00;1.00;;;;;7.25;62.05;101365.66;5048694;28;45200;-87
2021/12/11 04:54:47;;;;;;;;;3.00;3.00;;;;;7.27;61.87;101376.09;5059859;28;46203;-93
2021/12/11 05:02:55;;;;;;;;;0.00;0.00;;;;;7.25;61.88;101383.09;5051943;28;45463;-93
2021/12/11 05:08:25;;;;;;;;;4.25;1.00;;;;;7.25;61.79;101376.13;5047392;28;45685;-80
2021/12/11 05:11:02;;;;;;;;;2.50;1.00;;;;;7.25;62.09;101370.03;5061727;28;45435;-79
2021/12/11 05:13:29;;;;;;;;;3.75;1.25;;;;;7.28;62.00;101362.16;5059998;28;45263;-84
2021/12/11 05:15:59;;;;;;;;;3.00;3.00;;;;;7.27;61.13;101363.91;5049929;28;45576;-84
2021/12/11 05:18:28;;;;;;;;;2.00;2.00;;;;;7.28;61.78;101376.09;5058308;28;45496;-84
2021/12/11 05:20:59;;;;;;;;;1.25;1.25;;;;;7.28;61.94;101367.38;5059632;28;45307;-85
2021/12/11 05:23:25;;;;;;;;;2.00;1.00;;;;;7.27;61.53;101373.47;5061717;28;45196;-85
2021/12/11 05:25:51;;;;;;;;;3.75;2.00;;;;;7.24;61.38;101386.56;5061734;28;45330;-90
2021/12/11 05:28:17;;;;;;;;;3.50;2.00;;;;;7.16;62.11;101379.66;5043423;28;45408;-91
2021/12/11 05:30:46;;;;;;;;;3.00;3.00;;;;;7.17;62.18;101388.38;5059143;28;45235;-90
2021/12/11 05:33:13;;;;;;;;;4.75;2.00;;;;;7.16;61.62;101403.19;5057085;28;45314;-87
2021/12/11 05:35:40;;;;;;;;;3.00;2.25;;;;;7.09;62.25;101407.63;5058630;28;45699;-86
2021/12/11 05:38:09;;;;;;;;;3.50;2.50;;;;;7.06;61.64;101415.47;5061438;28;46703;-89
2021/12/11 05:40:37;;;;;;;;;5.00;3.75;;;;;7.02;62.33;101412.88;5060469;28;45452;-91
2021/12/11 05:43:04;;;;;;;;;2.50;1.00;;;;;6.99;62.29;101419.00;5060382;28;45461;-94
2021/12/11 05:45:30;;;;;;;;;4.00;3.00;;;;;6.96;61.76;101419.06;5046305;28;47591;-91
2021/12/11 05:47:55;;;;;;;;;5.00;4.00;;;;;6.92;62.25;101433.88;5061364;28;45290;-88
2021/12/11 05:50:27;;;;;;;;;4.75;3.00;;;;;6.91;62.43;101431.28;5043245;28;45208;-88
2021/12/11 05:52:53;;;;;;;;;3.50;2.00;;;;;6.91;62.34;101446.97;5060091;28;45355;-87
2021/12/11 05:55:21;;;;;;;;;5.00;3.00;;;;;6.88;62.05;101450.47;5060994;28;45468;-88
2021/12/11 05:57:52;;;;;;;;;3.00;3.00;;;;;6.86;62.37;101460.06;5048915;28;45732;-90
2021/12/11 06:00:25;;;;;;;;;3.75;2.00;;;;;6.84;62.34;101472.25;5060261;28;45954;-88
2021/12/11 06:02:51;;;;;;;;;3.00;2.75;;;;;6.81;62.13;101472.28;5059785;28;45524;-89
2021/12/11 06:05:16;;;;;;;;;4.75;4.00;;;;;6.78;62.08;101475.78;5061081;28;45513;-89
2021/12/11 06:07:43;;;;;;;;;7.25;3.00;;;;;6.73;62.48;101481.03;5060789;28;45399;-92
2021/12/11 06:10:13;;;;;;;;;3.50;2.25;;;;;6.72;62.42;101489.72;5046230;28;45727;-90
2021/12/11 06:12:38;;;;;;;;;3.25;3.00;;;;;6.67;62.32;101491.47;5047480;28;45343;-91
2021/12/11 06:15:05;;;;;;;;;5.75;4.00;;;;;6.66;62.38;101495.00;5054037;28;46115;-88
2021/12/11 06:17:34;;;;;;;;;6.00;5.00;;;;;6.62;62.54;101488.00;5051934;28;47233;-91
2021/12/11 06:20:02;;;;;;;;;3.50;1.75;;;;;6.61;62.59;101488.91;5053518;28;45239;-90
2021/12/11 06:22:31;;;;;;;;;6.50;5.00;;;;;6.58;62.39;101487.19;5056950;28;45403;-87
2021/12/11 06:24:59;;;;;;;;;5.00;5.00;;;;;6.57;62.79;101492.41;5049082;28;45483;-78
2021/12/11 06:27:25;;;;;;;;;6.00;6.00;;;;;6.56;62.54;101501.13;5057361;28;45568;-80
2021/12/11 06:29:51;;;;;;;;;5.50;5.00;;;;;6.57;62.57;101501.09;5060490;28;45831;-80
2021/12/11 06:32:18;;;;;;;;;4.75;4.00;;;;;6.55;62.74;101502.84;5060618;28;45219;-80
2021/12/11 06:34:43;;;;;;;;;10.50;5.50;;;;;6.54;62.92;101506.34;5058837;28;45558;-80
2021/12/11 06:37:10;;;;;;;;;8.00;4.25;;;;;6.56;62.45;101511.56;5048271;28;46330;-80
2021/12/11 06:39:37;;;;;;;;;7.75;3.00;;;;;6.49;62.31;101514.22;5054749;28;46062;-80
2021/12/11 06:42:06;;;;;;;;;6.25;5.25;;;;;6.50;62.80;101523.78;5048635;28;45350;-80
2021/12/11 06:44:32;;;;;;;;;5.00;4.00;;;;;6.47;62.47;101520.31;5058340;28;45475;-80
2021/12/11 06:47:00;;;;;;;;;7.75;7.75;;;;;6.44;63.23;101531.63;5060223;28;46546;-79
2021/12/11 06:49:28;;;;;;;;;6.00;3.00;;;;;6.46;62.79;101536.84;5060149;28;45346;-79
2021/12/11 06:51:54;;;;;;;;;10.25;5.50;;;;;6.45;63.13;101543.81;5046810;28;45425;-79
2021/12/11 06:54:20;;;;;;;;;9.75;5.00;;;;;6.46;63.26;101547.28;5060193;28;45310;-78
2021/12/11 06:56:46;;;;;;;;;5.00;4.00;;;;;6.43;62.92;101549.91;5059862;28;45363;-77
2021/12/11 06:59:12;;;;;;;;;4.75;4.00;;;;;6.41;62.99;101558.63;5059931;28;45228;-77
2021/12/11 07:01:38;;;;;;;;;4.00;4.00;;;;;6.38;63.27;101562.97;5058702;28;45253;-77
2021/12/11 07:04:07;;;;;;;;;5.00;5.00;;;;;6.39;62.85;101562.13;5058243;28;45364;-78
2021/12/11 07:06:34;;;;;;;;;6.50;5.50;;;;;6.33;63.32;101565.59;5049117;28;46313;-78
2021/12/11 07:09:02;;;;;;;;;6.25;5.75;;;;;6.35;63.35;101576.03;5058494;28;45169;-78
2021/12/11 07:11:28;;;;;;;;;4.75;4.00;;;;;6.34;63.20;101582.13;5056048;28;45429;-78
2021/12/11 07:13:54;;;;;;;;;8.25;6.50;;;;;6.33;63.17;101583.88;5050296;28;46116;-79
2021/12/11 07:16:19;;;;;;;;;5.75;4.00;;;;;6.30;62.90;101584.75;5048896;28;46956;-79
2021/12/11 07:18:45;;;;;;;;;7.00;4.00;;;;;6.27;62.89;101592.56;5058027;28;45440;-79
2021/12/11 07:21:11;;;;;;;;;5.00;5.00;;;;;6.27;63.22;101597.78;5057638;28;45393;-80
2021/12/11 07:23:41;;;;;;;;;7.00;5.00;;;;;6.23;63.05;101601.28;5062989;28;46139;-78
2021/12/11 07:26:13;;;;;;;;;5.00;4.75;;;;;6.20;63.01;101614.34;5057604;28;45540;-79
2021/12/11 07:28:50;;;;;;;;;9.00;7.50;;;;;6.17;62.99;101616.97;5059413;28;45394;-78
2021/12/11 07:31:16;;;;;;;;;9.00;9.00;;;;;6.12;63.39;101623.94;5059487;28;45240;-78
2021/12/11 07:33:42;;;;;;;;;9.00;7.50;;;;;6.10;63.22;101626.53;5044988;28;45410;-80
2021/12/11 07:36:08;;;;;;;;;12.00;9.00;;;;;6.07;63.08;101636.97;5045851;28;46274;-78
2021/12/11 07:38:34;;;;;;;;;11.75;9.25;;;;;6.03;63.46;101629.97;5059587;28;45701;-78
2021/12/11 07:41:03;;;;;;;;;10.75;8.75;;;;;5.99;63.27;101628.25;5059700;28;45444;-79
2021/12/11 07:43:29;;;;;;;;;10.50;10.50;;;;;5.94;63.55;101623.91;5065335;28;46445;-78
2021/12/11 07:45:56;;;;;;;;;14.50;11.00;;;;;5.93;63.29;101637.78;5057174;28;45264;-76
2021/12/11 07:48:22;;;;;;;;;17.75;15.25;;;;;5.91;63.35;101649.97;5045280;28;45225;-76
2021/12/11 07:50:48;;;;;;;;;13.25;12.00;;;;;5.87;63.52;101658.69;5046744;28;45233;-76
2021/12/11 07:53:17;;;;;;;;;14.25;10.50;;;;;5.87;63.54;101660.41;5073951;28;47146;-76
2021/12/11 07:55:43;;;;;;;;;16.50;14.00;;;;;5.84;64.22;101661.28;5045261;28;46314;-76
2021/12/11 07:58:09;;;;;;;;;12.00;12.00;;;;;5.81;63.68;101669.97;5058969;28;45275;-76
2021/12/11 08:00:38;;;;;;;;;16.00;14.25;;;;;5.81;63.85;101671.69;5057566;28;45277;-76
2021/12/11 08:03:05;;;;;;;;;14.00;12.25;;;;;5.78;64.08;101674.31;5070131;28;47421;-77
2021/12/11 08:05:31;;;;;;;;;5.75;4.50;;;;;5.77;64.03;101676.06;5066480;28;47124;-76
2021/12/11 08:08:01;;;;;;;;;12.25;11.50;;;;;5.76;64.20;101674.31;5054317;28;45276;-76
2021/12/11 08:10:29;;;;;;;;;16.00;15.00;;;;;5.75;63.82;101677.78;5051519;28;45357;-76
2021/12/11 08:12:55;;;;;;;;;19.00;16.00;;;;;5.73;63.88;101684.72;5057272;28;45948;-76
2021/12/11 08:15:20;;;;;;;;;19.25;17.25;;;;;5.71;64.20;101692.56;5052562;28;46558;-76
2021/12/11 08:17:52;;;;;;;;;19.00;15.75;;;;;5.71;64.23;101686.47;5057807;28;45981;-76
2021/12/11 08:20:19;;;;;;;;;18.25;16.75;;;;;5.69;64.08;101690.81;5056599;28;45236;-76
2021/12/11 08:22:45;;;;;;;;;17.75;17.75;;;;;5.69;64.12;101702.13;5043355;28;45443;-76
2021/12/11 08:25:11;;;;;;;;;24.00;18.00;;;;;5.69;64.32;101709.06;5055743;28;47350;-76
2021/12/11 08:27:37;;;;;;;;;22.25;21.25;;;;;5.68;64.58;101713.41;5050157;28;45323;-76
2021/12/11 08:30:06;;;;;;;;;21.25;16.75;;;;;5.69;64.59;101716.88;5057574;28;45334;-76
2021/12/11 08:32:31;;;;;;;;;19.50;16.00;;;;;5.68;64.52;101723.00;5074537;28;47373;-76
2021/12/11 08:34:57;;;;;;;;;18.25;17.00;;;;;5.69;64.66;101716.88;5057138;28;46591;-76
2021/12/11 08:37:23;;;;;;;;;18.50;18.50;;;;;5.68;64.62;101713.41;5056740;28;45483;-76
2021/12/11 08:39:50;;;;;;;;;23.00;19.50;;;;;5.71;65.10;101728.19;5058683;28;45370;-76
2021/12/11 08:42:19;;;;;;;;;28.00;21.00;;;;;5.76;65.10;101730.81;5058950;28;45334;-76
2021/12/11 08:44:52;;;;;;;;;25.50;22.50;;;;;5.78;64.84;101731.72;5055579;28;48547;-77
2021/12/11 08:47:22;;;;;;;;;32.00;28.25;;;;;5.82;65.00;101731.72;5062284;28;45387;-76
2021/12/11 08:49:51;;;;;;;;;32.75;24.25;;;;;5.85;65.56;101723.88;5067244;28;45361;-76
2021/12/11 08:52:30;;;;;;;;;34.25;26.50;;;;;5.90;65.39;101723.06;5041156;28;46315;-76
2021/12/11 08:54:57;;;;;;;;;28.25;28.00;;;;;5.95;65.70;101734.38;5063150;28;47409;-76
2021/12/11 08:57:27;;;;;;;;;29.25;26.00;;;;;6.00;65.66;101730.00;5060800;28;45825;-76
2021/12/11 08:59:56;;;;;;;;;33.75;28.50;;;;;6.04;65.94;101736.13;5056777;28;45411;-76
2021/12/11 09:02:27;;;;;;;;;27.75;24.50;;;;;6.13;65.97;101746.63;5051813;28;46075;-76
2021/12/11 09:05:00;;;;;;;;;27.75;24.00;;;;;6.21;65.79;101754.47;5056292;28;46317;-76
2021/12/11 09:07:35;;;;;;;;;17.25;17.25;;;;;6.30;65.97;101750.97;5061301;28;45325;-76
2021/12/11 09:10:06;;;;;;;;;21.25;18.50;;;;;6.37;65.44;101750.13;5061997;28;45310;-77
2021/12/11 09:12:42;;;;;;;;;22.50;17.00;;;;;6.46;65.97;101756.25;5061463;28;45485;-77
2021/12/11 09:15:14;;;;;;;;;15.50;12.50;;;;;6.57;66.33;101762.31;5060244;28;48339;-77
2021/12/11 09:17:55;;;;;;;;;17.00;15.75;;;;;6.67;66.39;101763.19;5077454;28;45976;-76
2021/12/11 09:20:44;;;;;;;;;17.50;10.50;;;;;6.79;66.00;101767.56;5055839;28;45541;-76
2021/12/11 09:23:27;;;;;;;;;11.00;9.25;;;;;6.90;65.57;101770.16;5046008;28;45284;-76
2021/12/11 09:25:52;;;;;;;;;17.50;16.00;;;;;7.00;65.56;101776.25;5045371;28;46860;-76
2021/12/11 09:28:28;;;;;;;;;17.25;14.25;;;;;7.10;64.96;101782.34;5059504;28;45363;-77
2021/12/11 09:31:19;;;;;;;;;11.25;10.50;;;;;7.21;65.25;101784.94;5050321;28;45280;-76
2021/12/11 09:34:00;;;;;;;;;13.00;10.75;;;;;7.33;64.81;101797.13;5055540;28;47026;-76
2021/12/11 09:36:33;;;;;;;;;14.00;10.00;;;;;7.45;64.75;101797.97;5047782;28;45253;-76
2021/12/11 09:39:19;;;;;;;;;10.75;10.50;;;;;7.54;64.29;101800.56;5049323;28;45173;-76
2021/12/11 09:41:44;;;;;;;;;13.00;8.25;;;;;7.61;64.73;101806.63;5062356;28;45275;-76
2021/12/11 09:44:15;;;;;;;;;12.67;7.00;;;;;7.70;65.47;101808.38;5056571;28;45237;-76
2021/12/11 09:46:43;;;;;;;;;12.00;7.25;;;;;7.76;64.11;101818.78;5059059;28;48427;-77
2021/12/11 09:49:12;;;;;;;;;12.50;8.25;;;;;7.81;63.76;101817.03;5059442;28;45393;-76
2021/12/11 09:51:43;;;;;;;;;10.50;10.00;;;;;7.87;63.72;101818.75;5061491;28;45216;-76
2021/12/11 09:54:16;;;;;;;;;7.00;7.00;;;;;7.87;63.55;101809.16;5057918;28;46031;-81
2021/12/11 09:56:47;;;;;;;;;8.00;6.50;;;;;7.93;63.28;101817.84;5059478;28;47840;-81
2021/12/11 09:59:16;;;;;;;;;10.25;9.75;;;;;7.93;62.90;101821.34;5059502;28;45788;-81
2021/12/11 10:01:45;;;;;;;;;10.25;8.00;;;;;8.00;62.90;101819.56;5051578;28;45251;-81
2021/12/11 10:04:17;;;;;;;;;12.25;7.00;;;;;8.04;62.56;101828.28;5068276;28;46028;-77
2021/12/11 10:09:24;;;;;;;;;8.25;6.75;;;;;8.11;62.92;101830.00;5049063;28;45521;-76
2021/12/11 10:12:13;;;;;;;;;12.50;6.50;;;;;8.12;62.54;101841.34;5048243;28;45480;-77
2021/12/11 10:14:43;;;;;;;;;7.00;7.00;;;;;8.15;62.33;101843.97;5052360;28;45448;-76
2021/12/11 10:17:16;;;;;;;;;12.00;6.25;;;;;8.21;62.27;101846.53;5060853;28;45249;-77
2021/12/11 10:19:44;;;;;;;;;9.75;8.00;;;;;8.24;62.70;101846.53;5057775;28;46064;-77
2021/12/11 10:22:32;;;;;;;;;10.25;8.25;;;;;8.27;63.05;101846.50;5045395;28;45412;-76
2021/12/11 10:25:00;;;;;;;;;11.00;8.75;;;;;8.32;62.69;101842.09;5043632;28;45594;-77
2021/12/11 10:27:30;;;;;;;;;12.75;7.75;;;;;8.38;62.13;101843.81;5049382;28;47804;-76
2021/12/11 10:29:58;;;;;;;;;8.25;7.25;;;;;8.44;62.15;101837.69;5059670;28;45421;-77
2021/12/11 10:32:30;;;;;;;;;8.00;8.00;;;;;8.47;61.92;101837.63;5054686;28;45326;-77
2021/12/11 10:35:00;;;;;;;;;7.25;7.25;;;;;8.51;62.72;101842.00;5057556;28;45486;-76
2021/12/11 10:37:34;;;;;;;;;8.00;7.50;;;;;8.54;62.59;101841.97;5050235;28;45244;-77
2021/12/11 10:40:06;;;;;;;;;7.25;6.00;;;;;8.59;62.20;101843.72;5055010;28;45721;-77
2021/12/11 10:42:32;;;;;;;;;14.25;8.00;;;;;8.59;62.02;101844.63;5045902;28;45341;-79
2021/12/11 10:44:59;;;;;;;;;10.25;6.75;;;;;8.62;61.82;101851.56;5053513;28;45358;-76
2021/12/11 10:47:35;;;;;;;;;12.75;7.75;;;;;8.60;62.03;101853.31;5059842;28;45277;-76
2021/12/11 10:50:05;;;;;;;;;11.75;10.25;;;;;8.61;61.35;101861.19;5060463;28;45741;-76
2021/12/11 10:52:31;;;;;;;;;10.50;9.00;;;;;8.59;61.78;101856.84;5045957;28;46898;-76
2021/12/11 10:55:01;;;;;;;;;11.00;8.00;;;;;8.61;61.29;101865.56;5047414;28;45477;-76
2021/12/11 10:57:27;;;;;;;;;16.75;8.25;;;;;8.60;61.50;101859.44;5043159;28;45476;-76
2021/12/11 10:59:56;;;;;;;;;9.75;9.00;;;;;8.61;62.01;101865.56;5052911;28;45176;-76
2021/12/11 11:02:30;;;;;;;;;7.75;7.75;;;;;8.58;61.93;101855.97;5042012;28;45346;-76
2021/12/11 11:05:07;;;;;;;;;10.50;6.25;;;;;8.58;61.75;101860.28;5052768;28;45374;-76
2021/12/11 11:07:33;;;;;;;;;9.75;7.25;;;;;8.58;61.62;101860.28;5047585;28;45405;-75
2021/12/11 11:10:03;;;;;;;;;6.25;6.00;;;;;8.55;61.58;101859.44;5048938;28;45346;-75
2021/12/11 11:12:30;;;;;;;;;8.75;8.00;;;;;8.53;61.05;101855.09;5055291;28;45469;-76
2021/12/11 11:14:57;;;;;;;;;14.00;8.00;;;;;8.57;61.09;101869.91;5057570;28;45523;-76
2021/12/11 11:17:28;;;;;;;;;8.75;6.25;;;;;8.55;61.81;101869.91;5054777;28;45451;-76
2021/12/11 11:19:54;;;;;;;;;5.50;5.50;;;;;8.59;61.64;101867.31;5049412;28;45707;-75
2021/12/11 11:22:25;;;;;;;;;12.75;8.75;;;;;8.62;61.54;101862.03;5044972;28;45409;-76
2021/12/11 11:24:57;;;;;;;;;8.75;5.75;;;;;8.62;61.55;101862.91;5059587;28;45300;-76
2021/12/11 11:27:23;;;;;;;;;6.25;6.00;;;;;8.68;61.53;101861.13;5054912;28;48268;-75
2021/12/11 11:29:49;;;;;;;;;10.50;8.75;;;;;8.69;61.55;101858.53;5048750;28;45339;-76
2021/12/11 11:32:22;;;;;;;;;7.50;6.00;;;;;8.70;62.21;101860.25;5043015;28;45521;-76
2021/12/11 11:34:47;;;;;;;;;7.75;7.75;;;;;8.75;62.02;101849.72;5043853;28;45482;-77
2021/12/11 11:37:18;;;;;;;;;12.00;8.00;;;;;8.83;61.23;101854.91;5050735;28;45350;-77
2021/12/11 11:39:44;;;;;;;;;9.00;8.25;;;;;8.86;61.24;101852.28;5056270;28;45447;-77
2021/12/11 11:42:15;;;;;;;;;12.00;5.50;;;;;8.91;61.27;101855.75;5059499;28;45511;-76
2021/12/11 11:44:45;;;;;;;;;7.50;7.50;;;;;8.98;61.70;101865.28;5058653;28;45513;-76
2021/12/11 11:47:12;;;;;;;;;9.25;7.00;;;;;9.02;61.16;101863.50;5045377;28;47487;-76
2021/12/11 11:49:39;;;;;;;;;10.25;8.00;;;;;9.03;61.23;101864.38;5058187;28;45350;-77
2021/12/11 11:52:10;;;;;;;;;7.50;5.50;;;;;9.09;61.17;101867.81;5055003;28;45411;-77
2021/12/11 11:54:40;;;;;;;;;6.75;5.00;;;;;9.13;61.35;101870.41;5054150;28;45450;-77